Kansas City, Missouri
Traffic Map
Current Weather Conditions
Kansas City, Missouri
Few Clouds
Few Clouds
26°
Feels Like: 27°
Wind Chill: 26° Ceiling: Unl
Heat Index: 27° Visibility: 10mi
Dew Point: 15° Wind: 9mph
Humidity: 50% Direction: 360° (N)
Pressure: 30.14in Gusts: 0mph
Raw Report DataKMKC 282354Z 36008KT 10SM FEW049 26/15 A3014 RMK AO2 SLP200 T02610150 10278 20244 56012
Traffic Incident Summary
Active as of:
Severity:
Category:
InformationThere was an issue retrieving the traffic information for this location. Please try a different location or try again shortly.
Advertisements
Track Severe Weather on mobile